sensor_id;sensor_type;location;lat;lon;timestamp;pressure;altitude;pressure_sealevel;temperature;humidity
11339;BME280;5724;42.684;23.252;2023-02-20T00:00:06;94679.66;;;8.95;65.87
11339;BME280;5724;42.684;23.252;2023-02-20T00:02:33;94676.03;;;8.91;65.86
11339;BME280;5724;42.684;23.252;2023-02-20T00:04:58;94669.66;;;8.87;66.29
11339;BME280;5724;42.684;23.252;2023-02-20T00:07:24;94675.13;;;8.87;66.07
11339;BME280;5724;42.684;23.252;2023-02-20T00:09:49;94672.75;;;8.85;66.56
11339;BME280;5724;42.684;23.252;2023-02-20T00:12:14;94674.22;;;8.83;66.66
11339;BME280;5724;42.684;23.252;2023-02-20T00:14:40;94667.28;;;8.85;66.73
11339;BME280;5724;42.684;23.252;2023-02-20T00:17:05;94680.13;;;8.73;67.40
11339;BME280;5724;42.684;23.252;2023-02-20T00:19:31;94669.91;;;8.70;67.70
11339;BME280;5724;42.684;23.252;2023-02-20T00:21:56;94667.38;;;8.65;68.19
11339;BME280;5724;42.684;23.252;2023-02-20T00:24:22;94656.25;;;8.57;68.60
11339;BME280;5724;42.684;23.252;2023-02-20T00:26:49;94663.28;;;8.58;68.86
11339;BME280;5724;42.684;23.252;2023-02-20T00:29:16;94657.63;;;8.51;69.06
11339;BME280;5724;42.684;23.252;2023-02-20T00:31:42;94656.03;;;8.50;69.50
11339;BME280;5724;42.684;23.252;2023-02-20T00:34:07;94651.72;;;8.49;69.75
11339;BME280;5724;42.684;23.252;2023-02-20T00:36:33;94652.94;;;8.40;70.19
11339;BME280;5724;42.684;23.252;2023-02-20T00:38:58;94644.78;;;8.40;70.26
11339;BME280;5724;42.684;23.252;2023-02-20T00:41:24;94636.97;;;8.29;70.46
11339;BME280;5724;42.684;23.252;2023-02-20T00:43:49;94639.59;;;8.26;70.78
11339;BME280;5724;42.684;23.252;2023-02-20T00:46:15;94643.91;;;8.27;70.96
11339;BME280;5724;42.684;23.252;2023-02-20T00:48:41;94643.88;;;8.15;71.60
11339;BME280;5724;42.684;23.252;2023-02-20T00:51:07;94677.94;;;8.21;71.28
11339;BME280;5724;42.684;23.252;2023-02-20T00:53:32;94682.66;;;8.12;71.40
11339;BME280;5724;42.684;23.252;2023-02-20T00:55:58;94653.03;;;8.10;71.34
11339;BME280;5724;42.684;23.252;2023-02-20T00:58:23;94666.63;;;8.10;71.60
11339;BME280;5724;42.684;23.252;2023-02-20T01:00:49;94693.47;;;7.99;72.15
11339;BME280;5724;42.684;23.252;2023-02-20T01:03:14;94693.34;;;7.96;72.46
11339;BME280;5724;42.684;23.252;2023-02-20T01:05:39;94709.06;;;7.90;73.13
11339;BME280;5724;42.684;23.252;2023-02-20T01:08:05;94712.13;;;7.89;73.21
11339;BME280;5724;42.684;23.252;2023-02-20T01:10:30;94704.72;;;7.77;73.32
11339;BME280;5724;42.684;23.252;2023-02-20T01:12:56;94704.81;;;7.81;73.92
11339;BME280;5724;42.684;23.252;2023-02-20T01:15:21;94700.00;;;7.86;73.71
11339;BME280;5724;42.684;23.252;2023-02-20T01:17:47;94687.19;;;7.87;73.64
11339;BME280;5724;42.684;23.252;2023-02-20T01:20:12;94704.19;;;7.84;73.98
11339;BME280;5724;42.684;23.252;2023-02-20T01:22:38;94721.41;;;7.88;74.10
11339;BME280;5724;42.684;23.252;2023-02-20T01:25:03;94707.38;;;7.86;74.12
11339;BME280;5724;42.684;23.252;2023-02-20T01:27:29;94705.81;;;7.97;73.79
11339;BME280;5724;42.684;23.252;2023-02-20T01:29:55;94711.53;;;8.04;73.58
11339;BME280;5724;42.684;23.252;2023-02-20T01:32:20;94713.25;;;8.09;73.73
11339;BME280;5724;42.684;23.252;2023-02-20T01:34:46;94719.28;;;8.14;73.43
11339;BME280;5724;42.684;23.252;2023-02-20T01:37:14;94717.25;;;8.11;73.55
11339;BME280;5724;42.684;23.252;2023-02-20T01:39:40;94739.59;;;8.17;73.52
11339;BME280;5724;42.684;23.252;2023-02-20T01:42:07;94739.59;;;8.17;73.75
11339;BME280;5724;42.684;23.252;2023-02-20T01:44:38;94751.94;;;8.14;74.14
11339;BME280;5724;42.684;23.252;2023-02-20T01:47:11;94741.94;;;8.06;74.79
11339;BME280;5724;42.684;23.252;2023-02-20T01:52:17;94729.13;;;8.07;75.76
11339;BME280;5724;42.684;23.252;2023-02-20T01:54:47;94736.81;;;8.04;75.80
11339;BME280;5724;42.684;23.252;2023-02-20T01:57:20;94759.91;;;7.98;76.16
11339;BME280;5724;42.684;23.252;2023-02-20T01:59:48;94765.91;;;7.92;76.63
11339;BME280;5724;42.684;23.252;2023-02-20T02:02:14;94769.47;;;7.84;77.03
11339;BME280;5724;42.684;23.252;2023-02-20T02:04:40;94776.88;;;7.74;77.59
11339;BME280;5724;42.684;23.252;2023-02-20T02:07:07;94736.88;;;7.75;77.19
11339;BME280;5724;42.684;23.252;2023-02-20T02:12:02;94740.78;;;7.44;77.13
11339;BME280;5724;42.684;23.252;2023-02-20T02:14:28;94753.34;;;7.49;76.95
11339;BME280;5724;42.684;23.252;2023-02-20T02:17:21;94734.66;;;7.47;76.08
11339;BME280;5724;42.684;23.252;2023-02-20T02:20:06;94755.94;;;7.45;76.46
11339;BME280;5724;42.684;23.252;2023-02-20T02:25:33;94756.28;;;7.44;75.33
11339;BME280;5724;42.684;23.252;2023-02-20T02:36:27;94772.88;;;7.13;77.10
11339;BME280;5724;42.684;23.252;2023-02-20T02:42:12;94766.38;;;7.05;77.75
11339;BME280;5724;42.684;23.252;2023-02-20T02:44:50;94767.34;;;7.01;77.35
11339;BME280;5724;42.684;23.252;2023-02-20T02:47:43;94776.28;;;7.01;77.74
11339;BME280;5724;42.684;23.252;2023-02-20T02:50:38;94767.22;;;6.97;78.09
11339;BME280;5724;42.684;23.252;2023-02-20T02:53:04;94770.72;;;6.98;77.83
11339;BME280;5724;42.684;23.252;2023-02-20T02:55:31;94781.06;;;7.04;77.69
11339;BME280;5724;42.684;23.252;2023-02-20T02:58:01;94776.63;;;7.00;77.82
11339;BME280;5724;42.684;23.252;2023-02-20T03:00:43;94764.53;;;6.80;78.37
11339;BME280;5724;42.684;23.252;2023-02-20T03:03:30;94782.41;;;6.89;78.12
11339;BME280;5724;42.684;23.252;2023-02-20T03:08:42;94785.59;;;6.83;78.09
11339;BME280;5724;42.684;23.252;2023-02-20T03:11:11;94772.38;;;6.81;77.94
11339;BME280;5724;42.684;23.252;2023-02-20T03:13:44;94776.06;;;6.77;78.12
11339;BME280;5724;42.684;23.252;2023-02-20T03:16:45;94772.38;;;6.81;77.81
11339;BME280;5724;42.684;23.252;2023-02-20T03:19:20;94792.19;;;6.73;78.21
11339;BME280;5724;42.684;23.252;2023-02-20T03:21:49;94799.53;;;6.73;77.92
11339;BME280;5724;42.684;23.252;2023-02-20T03:24:19;94801.13;;;6.74;77.19
11339;BME280;5724;42.684;23.252;2023-02-20T03:26:45;94801.00;;;6.70;77.23
11339;BME280;5724;42.684;23.252;2023-02-20T03:29:39;94803.03;;;6.73;77.76
11339;BME280;5724;42.684;23.252;2023-02-20T03:32:09;94791.59;;;6.59;77.07
11339;BME280;5724;42.684;23.252;2023-02-20T03:34:56;94807.41;;;6.57;77.61
11339;BME280;5724;42.684;23.252;2023-02-20T03:37:41;94806.28;;;6.58;77.93
11339;BME280;5724;42.684;23.252;2023-02-20T03:40:28;94806.91;;;6.55;77.27
11339;BME280;5724;42.684;23.252;2023-02-20T03:43:15;94776.78;;;6.30;77.84
11339;BME280;5724;42.684;23.252;2023-02-20T03:46:01;94818.88;;;6.54;77.21
11339;BME280;5724;42.684;23.252;2023-02-20T03:51:15;94812.34;;;6.55;77.48
11339;BME280;5724;42.684;23.252;2023-02-20T03:53:43;94815.56;;;6.57;76.58
11339;BME280;5724;42.684;23.252;2023-02-20T03:56:13;94819.34;;;6.56;76.72
11339;BME280;5724;42.684;23.252;2023-02-20T03:58:45;94835.81;;;6.59;76.48
11339;BME280;5724;42.684;23.252;2023-02-20T04:01:14;94841.06;;;6.65;76.15
11339;BME280;5724;42.684;23.252;2023-02-20T04:03:44;94852.44;;;6.67;75.81
11339;BME280;5724;42.684;23.252;2023-02-20T04:06:12;94847.47;;;6.60;75.62
11339;BME280;5724;42.684;23.252;2023-02-20T04:09:05;94863.59;;;6.74;75.55
11339;BME280;5724;42.684;23.252;2023-02-20T04:11:37;94850.31;;;6.81;74.77
11339;BME280;5724;42.684;23.252;2023-02-20T04:14:04;94850.97;;;6.86;74.16
11339;BME280;5724;42.684;23.252;2023-02-20T04:16:35;94852.56;;;6.87;74.16
11339;BME280;5724;42.684;23.252;2023-02-20T04:19:03;94836.41;;;6.91;74.03
11339;BME280;5724;42.684;23.252;2023-02-20T04:21:38;94830.63;;;6.93;74.01
11339;BME280;5724;42.684;23.252;2023-02-20T04:24:08;94844.75;;;6.86;74.40
11339;BME280;5724;42.684;23.252;2023-02-20T04:26:35;94865.16;;;6.83;75.15
11339;BME280;5724;42.684;23.252;2023-02-20T04:29:03;94853.22;;;6.76;75.53
11339;BME280;5724;42.684;23.252;2023-02-20T04:31:29;94832.00;;;6.60;75.15
11339;BME280;5724;42.684;23.252;2023-02-20T04:33:54;94866.63;;;6.72;75.54
11339;BME280;5724;42.684;23.252;2023-02-20T04:36:20;94890.91;;;6.69;75.37
11339;BME280;5724;42.684;23.252;2023-02-20T04:38:46;94862.31;;;6.63;75.04
11339;BME280;5724;42.684;23.252;2023-02-20T04:41:12;94873.50;;;6.61;74.80
11339;BME280;5724;42.684;23.252;2023-02-20T04:43:37;94849.88;;;6.53;74.60
11339;BME280;5724;42.684;23.252;2023-02-20T04:46:03;94856.91;;;6.54;73.51
11339;BME280;5724;42.684;23.252;2023-02-20T04:48:28;94833.13;;;6.34;72.65
11339;BME280;5724;42.684;23.252;2023-02-20T04:50:54;94847.97;;;6.45;72.50
11339;BME280;5724;42.684;23.252;2023-02-20T04:53:19;94846.84;;;6.46;73.12
11339;BME280;5724;42.684;23.252;2023-02-20T04:55:45;94840.94;;;6.35;72.47
11339;BME280;5724;42.684;23.252;2023-02-20T04:58:10;94856.75;;;6.42;72.19
11339;BME280;5724;42.684;23.252;2023-02-20T05:00:36;94857.22;;;6.26;71.18
11339;BME280;5724;42.684;23.252;2023-02-20T05:03:01;94859.13;;;6.35;71.22
11339;BME280;5724;42.684;23.252;2023-02-20T05:05:28;94878.31;;;6.29;71.93
11339;BME280;5724;42.684;23.252;2023-02-20T05:07:56;94878.44;;;6.24;71.01
11339;BME280;5724;42.684;23.252;2023-02-20T05:10:22;94877.03;;;6.18;70.16
11339;BME280;5724;42.684;23.252;2023-02-20T05:12:48;94892.34;;;6.23;69.82
11339;BME280;5724;42.684;23.252;2023-02-20T05:15:14;94869.66;;;6.10;69.58
11339;BME280;5724;42.684;23.252;2023-02-20T05:17:40;94926.31;;;6.12;69.32
11339;BME280;5724;42.684;23.252;2023-02-20T05:20:06;94887.06;;;6.09;69.87
11339;BME280;5724;42.684;23.252;2023-02-20T05:22:32;94885.78;;;6.15;69.48
11339;BME280;5724;42.684;23.252;2023-02-20T05:24:57;94895.69;;;6.11;69.22
11339;BME280;5724;42.684;23.252;2023-02-20T05:27:24;94901.56;;;6.13;70.07
11339;BME280;5724;42.684;23.252;2023-02-20T05:29:52;94896.94;;;6.14;69.70
11339;BME280;5724;42.684;23.252;2023-02-20T05:32:20;94918.81;;;6.09;70.34
11339;BME280;5724;42.684;23.252;2023-02-20T05:34:46;94915.78;;;6.10;70.68
11339;BME280;5724;42.684;23.252;2023-02-20T05:37:14;94918.81;;;6.09;71.84
11339;BME280;5724;42.684;23.252;2023-02-20T05:39:40;94919.28;;;6.11;71.18
11339;BME280;5724;42.684;23.252;2023-02-20T05:42:06;94926.47;;;6.15;71.79
11339;BME280;5724;42.684;23.252;2023-02-20T05:44:32;94937.31;;;6.15;72.34
11339;BME280;5724;42.684;23.252;2023-02-20T05:46:57;94930.50;;;6.18;72.80
11339;BME280;5724;42.684;23.252;2023-02-20T05:49:23;94923.16;;;6.18;72.08
11339;BME280;5724;42.684;23.252;2023-02-20T05:51:49;94927.28;;;6.24;72.29
11339;BME280;5724;42.684;23.252;2023-02-20T05:54:16;94925.06;;;6.26;72.31
11339;BME280;5724;42.684;23.252;2023-02-20T05:56:42;94924.13;;;6.31;71.70
11339;BME280;5724;42.684;23.252;2023-02-20T05:59:08;94910.88;;;6.38;71.54
11339;BME280;5724;42.684;23.252;2023-02-20T06:01:34;94921.56;;;6.43;69.98
11339;BME280;5724;42.684;23.252;2023-02-20T06:03:59;94913.09;;;6.45;70.04
11339;BME280;5724;42.684;23.252;2023-02-20T06:06:37;94925.25;;;6.65;67.66
11339;BME280;5724;42.684;23.252;2023-02-20T06:09:04;94934.03;;;6.70;67.92
11339;BME280;5724;42.684;23.252;2023-02-20T06:11:32;94932.13;;;6.79;67.27
11339;BME280;5724;42.684;23.252;2023-02-20T06:13:58;94948.75;;;6.86;67.00
11339;BME280;5724;42.684;23.252;2023-02-20T06:16:25;94952.25;;;6.96;66.65
11339;BME280;5724;42.684;23.252;2023-02-20T06:18:52;94951.13;;;6.97;66.54
11339;BME280;5724;42.684;23.252;2023-02-20T06:21:18;94944.25;;;7.08;66.77
11339;BME280;5724;42.684;23.252;2023-02-20T06:23:45;94950.28;;;7.22;66.78
11339;BME280;5724;42.684;23.252;2023-02-20T06:26:12;94957.19;;;7.20;64.60
11339;BME280;5724;42.684;23.252;2023-02-20T06:28:38;94941.97;;;7.27;65.02
11339;BME280;5724;42.684;23.252;2023-02-20T06:31:08;94958.28;;;7.36;65.10
11339;BME280;5724;42.684;23.252;2023-02-20T06:33:34;94946.41;;;7.40;63.30
11339;BME280;5724;42.684;23.252;2023-02-20T06:36:00;94963.16;;;7.60;62.67
11339;BME280;5724;42.684;23.252;2023-02-20T06:38:26;94981.38;;;7.68;62.46
11339;BME280;5724;42.684;23.252;2023-02-20T06:40:52;94968.13;;;7.58;62.60
11339;BME280;5724;42.684;23.252;2023-02-20T06:43:18;94959.41;;;7.35;61.68
11339;BME280;5724;42.684;23.252;2023-02-20T06:45:45;94980.66;;;7.33;62.86
11339;BME280;5724;42.684;23.252;2023-02-20T06:48:11;94986.41;;;7.31;62.58
11339;BME280;5724;42.684;23.252;2023-02-20T06:50:39;94976.06;;;7.07;63.00
11339;BME280;5724;42.684;23.252;2023-02-20T06:53:05;95016.50;;;7.09;63.44
11339;BME280;5724;42.684;23.252;2023-02-20T06:55:31;94986.28;;;7.02;63.40
11339;BME280;5724;42.684;23.252;2023-02-20T06:57:57;94968.84;;;7.03;64.25
11339;BME280;5724;42.684;23.252;2023-02-20T07:00:22;94985.63;;;7.22;63.43
11339;BME280;5724;42.684;23.252;2023-02-20T07:02:48;95007.69;;;7.12;62.87
11339;BME280;5724;42.684;23.252;2023-02-20T07:05:14;94992.69;;;7.14;61.71
11339;BME280;5724;42.684;23.252;2023-02-20T07:07:39;94984.53;;;7.14;60.43
11339;BME280;5724;42.684;23.252;2023-02-20T07:10:05;95001.13;;;7.30;60.39
11339;BME280;5724;42.684;23.252;2023-02-20T07:12:32;94991.34;;;7.46;59.57
11339;BME280;5724;42.684;23.252;2023-02-20T07:14:58;94993.88;;;7.60;58.68
11339;BME280;5724;42.684;23.252;2023-02-20T07:17:24;95020.16;;;7.39;57.74
11339;BME280;5724;42.684;23.252;2023-02-20T07:19:49;95028.44;;;7.51;57.59
11339;BME280;5724;42.684;23.252;2023-02-20T07:22:15;95019.81;;;7.49;56.87
11339;BME280;5724;42.684;23.252;2023-02-20T07:24:40;95006.06;;;7.54;56.96
11339;BME280;5724;42.684;23.252;2023-02-20T07:27:09;95002.56;;;7.45;55.80
11339;BME280;5724;42.684;23.252;2023-02-20T07:29:36;95002.38;;;7.33;56.47
11339;BME280;5724;42.684;23.252;2023-02-20T07:32:01;95009.28;;;7.22;57.52
11339;BME280;5724;42.684;23.252;2023-02-20T07:34:27;95013.91;;;7.12;57.22
11339;BME280;5724;42.684;23.252;2023-02-20T07:36:52;95007.88;;;7.15;57.35
11339;BME280;5724;42.684;23.252;2023-02-20T07:39:18;94996.19;;;7.15;56.57
11339;BME280;5724;42.684;23.252;2023-02-20T07:41:43;95048.44;;;7.21;56.50
11339;BME280;5724;42.684;23.252;2023-02-20T07:44:09;95016.31;;;7.14;55.84
11339;BME280;5724;42.684;23.252;2023-02-20T07:46:36;95016.63;;;7.21;56.60
11339;BME280;5724;42.684;23.252;2023-02-20T07:49:04;95047.66;;;7.20;55.22
11339;BME280;5724;42.684;23.252;2023-02-20T07:51:30;95026.72;;;7.12;55.54
11339;BME280;5724;42.684;23.252;2023-02-20T07:53:56;95020.00;;;7.18;55.50
11339;BME280;5724;42.684;23.252;2023-02-20T07:56:22;95027.03;;;7.19;55.82
11339;BME280;5724;42.684;23.252;2023-02-20T07:58:48;95017.09;;;7.23;55.69
11339;BME280;5724;42.684;23.252;2023-02-20T08:01:14;95023.78;;;7.52;55.54
11339;BME280;5724;42.684;23.252;2023-02-20T08:03:40;95010.84;;;7.57;54.98
11339;BME280;5724;42.684;23.252;2023-02-20T08:06:05;95023.78;;;7.69;55.07
11339;BME280;5724;42.684;23.252;2023-02-20T08:08:31;95102.81;;;7.64;54.40
11339;BME280;5724;42.684;23.252;2023-02-20T08:10:57;95042.34;;;7.58;54.54
11339;BME280;5724;42.684;23.252;2023-02-20T08:13:22;95055.72;;;7.89;54.05
11339;BME280;5724;42.684;23.252;2023-02-20T08:15:48;95054.91;;;7.97;52.89
11339;BME280;5724;42.684;23.252;2023-02-20T08:18:14;95051.88;;;7.90;53.62
11339;BME280;5724;42.684;23.252;2023-02-20T08:20:39;95042.13;;;7.81;53.10
11339;BME280;5724;42.684;23.252;2023-02-20T08:23:12;95053.69;;;7.69;53.50
11339;BME280;5724;42.684;23.252;2023-02-20T08:25:38;95043.13;;;7.76;54.23
11339;BME280;5724;42.684;23.252;2023-02-20T08:28:03;95054.13;;;7.88;53.07
11339;BME280;5724;42.684;23.252;2023-02-20T08:30:29;95070.00;;;7.78;54.16
11339;BME280;5724;42.684;23.252;2023-02-20T08:32:54;95048.38;;;7.81;53.81
11339;BME280;5724;42.684;23.252;2023-02-20T08:35:20;95057.97;;;7.87;54.18
11339;BME280;5724;42.684;23.252;2023-02-20T08:37:47;95057.19;;;7.87;53.79
11339;BME280;5724;42.684;23.252;2023-02-20T08:40:13;95049.13;;;7.99;53.68
11339;BME280;5724;42.684;23.252;2023-02-20T08:42:39;95067.25;;;7.86;53.07
11339;BME280;5724;42.684;23.252;2023-02-20T08:45:05;95019.84;;;7.96;52.35
11339;BME280;5724;42.684;23.252;2023-02-20T08:47:32;95023.50;;;8.09;52.61
11339;BME280;5724;42.684;23.252;2023-02-20T08:49:57;95079.41;;;7.97;53.21
11339;BME280;5724;42.684;23.252;2023-02-20T08:52:23;95046.63;;;7.85;53.21
11339;BME280;5724;42.684;23.252;2023-02-20T08:54:48;95060.53;;;7.92;53.30
11339;BME280;5724;42.684;23.252;2023-02-20T08:57:15;95056.69;;;7.93;53.02
11339;BME280;5724;42.684;23.252;2023-02-20T08:59:41;94975.75;;;7.82;52.89
11339;BME280;5724;42.684;23.252;2023-02-20T09:02:09;95026.13;;;7.88;52.64
11339;BME280;5724;42.684;23.252;2023-02-20T09:04:42;95018.41;;;7.98;52.50
11339;BME280;5724;42.684;23.252;2023-02-20T09:07:08;95036.50;;;7.94;52.62
11339;BME280;5724;42.684;23.252;2023-02-20T09:09:33;94993.97;;;8.19;52.62
11339;BME280;5724;42.684;23.252;2023-02-20T09:11:59;95032.72;;;8.25;51.21
11339;BME280;5724;42.684;23.252;2023-02-20T09:14:24;95047.97;;;8.09;51.42
11339;BME280;5724;42.684;23.252;2023-02-20T09:16:53;95017.44;;;8.03;51.81
11339;BME280;5724;42.684;23.252;2023-02-20T09:19:18;95000.16;;;7.99;51.85
11339;BME280;5724;42.684;23.252;2023-02-20T09:21:48;94962.09;;;7.90;52.37
11339;BME280;5724;42.684;23.252;2023-02-20T09:24:14;95065.91;;;8.10;52.01
11339;BME280;5724;42.684;23.252;2023-02-20T09:26:40;95036.03;;;8.01;51.94
11339;BME280;5724;42.684;23.252;2023-02-20T09:29:05;95064.50;;;8.03;52.32
11339;BME280;5724;42.684;23.252;2023-02-20T09:31:30;95019.84;;;8.04;52.64
11339;BME280;5724;42.684;23.252;2023-02-20T09:33:56;95015.97;;;8.06;52.13
11339;BME280;5724;42.684;23.252;2023-02-20T09:36:21;95056.75;;;8.23;52.56
11339;BME280;5724;42.684;23.252;2023-02-20T09:38:47;95097.22;;;8.33;52.49
11339;BME280;5724;42.684;23.252;2023-02-20T09:49:51;95023.78;;;8.83;50.55
11339;BME280;5724;42.684;23.252;2023-02-20T09:52:17;95020.97;;;8.71;50.45
11339;BME280;5724;42.684;23.252;2023-02-20T09:54:50;94998.84;;;8.94;49.75
11339;BME280;5724;42.684;23.252;2023-02-20T09:57:23;95025.63;;;8.71;48.90
11339;BME280;5724;42.684;23.252;2023-02-20T10:00:22;95080.75;;;8.68;48.45
11339;BME280;5724;42.684;23.252;2023-02-20T10:05:41;95062.81;;;8.67;47.21
11339;BME280;5724;42.684;23.252;2023-02-20T10:08:09;95034.03;;;8.57;47.76
11339;BME280;5724;42.684;23.252;2023-02-20T10:10:36;95045.53;;;8.63;47.38
11339;BME280;5724;42.684;23.252;2023-02-20T10:15:56;95026.38;;;8.80;46.49
11339;BME280;5724;42.684;23.252;2023-02-20T10:18:39;95003.97;;;8.95;46.18
11339;BME280;5724;42.684;23.252;2023-02-20T10:26:07;95035.59;;;8.87;44.52
11339;BME280;5724;42.684;23.252;2023-02-20T10:28:35;95078.13;;;9.09;43.77
11339;BME280;5724;42.684;23.252;2023-02-20T10:31:20;95006.03;;;9.19;44.50
11339;BME280;5724;42.684;23.252;2023-02-20T10:33:55;95002.56;;;9.31;43.98
11339;BME280;5724;42.684;23.252;2023-02-20T10:36:28;94963.59;;;9.30;43.96
11339;BME280;5724;42.684;23.252;2023-02-20T10:38:59;94978.00;;;9.52;43.77
11339;BME280;5724;42.684;23.252;2023-02-20T10:42:09;94972.25;;;9.65;43.96
11339;BME280;5724;42.684;23.252;2023-02-20T10:44:44;94974.31;;;9.81;43.62
11339;BME280;5724;42.684;23.252;2023-02-20T10:47:23;94961.88;;;9.59;43.52
11339;BME280;5724;42.684;23.252;2023-02-20T10:52:35;94936.78;;;9.65;43.92
11339;BME280;5724;42.684;23.252;2023-02-20T10:55:10;94965.88;;;9.73;43.88
11339;BME280;5724;42.684;23.252;2023-02-20T10:57:46;94959.09;;;9.92;44.09
11339;BME280;5724;42.684;23.252;2023-02-20T11:00:22;94970.69;;;9.89;43.30
11339;BME280;5724;42.684;23.252;2023-02-20T11:03:00;94953.66;;;10.04;43.42
11339;BME280;5724;42.684;23.252;2023-02-20T11:05:30;94954.91;;;10.19;44.16
11339;BME280;5724;42.684;23.252;2023-02-20T11:07:57;94977.38;;;10.24;43.88
11339;BME280;5724;42.684;23.252;2023-02-20T11:10:22;94994.16;;;10.14;43.50
11339;BME280;5724;42.684;23.252;2023-02-20T11:12:55;94935.00;;;10.18;43.09
11339;BME280;5724;42.684;23.252;2023-02-20T11:15:28;94963.91;;;10.07;43.65
11339;BME280;5724;42.684;23.252;2023-02-20T11:17:55;94971.13;;;10.24;43.22
11339;BME280;5724;42.684;23.252;2023-02-20T11:23:05;94949.78;;;10.17;43.73
11339;BME280;5724;42.684;23.252;2023-02-20T11:25:33;94981.00;;;10.28;43.59
11339;BME280;5724;42.684;23.252;2023-02-20T11:28:23;94956.66;;;10.23;44.54
11339;BME280;5724;42.684;23.252;2023-02-20T11:30:59;94984.41;;;10.38;43.88
11339;BME280;5724;42.684;23.252;2023-02-20T11:33:29;94964.81;;;10.60;43.74
11339;BME280;5724;42.684;23.252;2023-02-20T11:35:56;94946.03;;;10.58;42.94
11339;BME280;5724;42.684;23.252;2023-02-20T11:38:27;94952.34;;;10.35;42.88
11339;BME280;5724;42.684;23.252;2023-02-20T11:43:36;94973.03;;;10.48;42.54
11339;BME280;5724;42.684;23.252;2023-02-20T11:46:16;94943.06;;;10.51;42.55
11339;BME280;5724;42.684;23.252;2023-02-20T11:49:21;94969.38;;;10.31;43.21
11339;BME280;5724;42.684;23.252;2023-02-20T11:51:48;94951.03;;;10.08;43.09
11339;BME280;5724;42.684;23.252;2023-02-20T11:54:18;94965.97;;;10.22;42.83
11339;BME280;5724;42.684;23.252;2023-02-20T11:57:16;94957.06;;;10.13;43.39
11339;BME280;5724;42.684;23.252;2023-02-20T11:59:44;94949.00;;;10.17;43.07
11339;BME280;5724;42.684;23.252;2023-02-20T12:05:06;94947.44;;;10.28;42.57
11339;BME280;5724;42.684;23.252;2023-02-20T12:12:57;94949.25;;;10.48;42.52
11339;BME280;5724;42.684;23.252;2023-02-20T12:15:26;94907.81;;;10.22;42.13
11339;BME280;5724;42.684;23.252;2023-02-20T12:20:53;94973.94;;;10.40;42.64
11339;BME280;5724;42.684;23.252;2023-02-20T12:23:37;94932.16;;;10.39;42.55
11339;BME280;5724;42.684;23.252;2023-02-20T12:38:17;94982.13;;;10.27;43.22
11339;BME280;5724;42.684;23.252;2023-02-20T12:46:33;94936.81;;;10.51;42.19
11339;BME280;5724;42.684;23.252;2023-02-20T13:00:20;94934.28;;;10.70;42.65
11339;BME280;5724;42.684;23.252;2023-02-20T13:02:49;94921.75;;;10.69;42.78
11339;BME280;5724;42.684;23.252;2023-02-20T13:05:19;94900.06;;;10.48;42.64
11339;BME280;5724;42.684;23.252;2023-02-20T13:07:52;94979.84;;;10.42;42.60
11339;BME280;5724;42.684;23.252;2023-02-20T13:10:23;94933.88;;;10.31;42.43
11339;BME280;5724;42.684;23.252;2023-02-20T13:12:50;94925.22;;;10.42;42.49
11339;BME280;5724;42.684;23.252;2023-02-20T13:20:29;94952.19;;;10.55;42.11
11339;BME280;5724;42.684;23.252;2023-02-20T13:23:27;94937.25;;;10.65;41.58
11339;BME280;5724;42.684;23.252;2023-02-20T13:25:51;94946.00;;;10.83;42.42
11339;BME280;5724;42.684;23.252;2023-02-20T13:31:19;94932.84;;;11.01;43.05
11339;BME280;5724;42.684;23.252;2023-02-20T13:33:48;94941.09;;;11.16;42.79
11339;BME280;5724;42.684;23.252;2023-02-20T13:49:56;94950.50;;;11.03;42.43
11339;BME280;5724;42.684;23.252;2023-02-20T14:03:10;94956.38;;;10.77;43.87
11339;BME280;5724;42.684;23.252;2023-02-20T14:05:36;94980.16;;;10.77;43.59
11339;BME280;5724;42.684;23.252;2023-02-20T14:08:01;94956.84;;;10.67;43.77
11339;BME280;5724;42.684;23.252;2023-02-20T14:10:32;94958.69;;;10.51;43.81
11339;BME280;5724;42.684;23.252;2023-02-20T14:15:43;94957.06;;;10.74;43.89
11339;BME280;5724;42.684;23.252;2023-02-20T14:20:42;94967.44;;;10.32;45.18
11339;BME280;5724;42.684;23.252;2023-02-20T14:23:19;94940.72;;;10.38;44.85
11339;BME280;5724;42.684;23.252;2023-02-20T14:26:00;94956.31;;;10.37;45.60
11339;BME280;5724;42.684;23.252;2023-02-20T14:28:31;94974.63;;;10.37;45.76
11339;BME280;5724;42.684;23.252;2023-02-20T14:33:34;94963.00;;;10.15;46.70
11339;BME280;5724;42.684;23.252;2023-02-20T14:36:19;94986.88;;;10.06;47.21
11339;BME280;5724;42.684;23.252;2023-02-20T14:41:18;94987.19;;;9.92;46.80
11339;BME280;5724;42.684;23.252;2023-02-20T14:43:44;94982.50;;;9.93;46.54
11339;BME280;5724;42.684;23.252;2023-02-20T14:46:30;94980.94;;;9.92;46.85
11339;BME280;5724;42.684;23.252;2023-02-20T14:49:07;94975.03;;;10.02;47.21
11339;BME280;5724;42.684;23.252;2023-02-20T14:51:34;95000.72;;;9.89;47.35
11339;BME280;5724;42.684;23.252;2023-02-20T14:54:24;94982.81;;;9.67;48.03
11339;BME280;5724;42.684;23.252;2023-02-20T14:56:50;94971.56;;;9.68;48.08
11339;BME280;5724;42.684;23.252;2023-02-20T14:59:28;94964.28;;;9.72;48.46
11339;BME280;5724;42.684;23.252;2023-02-20T15:01:58;94967.47;;;9.74;48.32
11339;BME280;5724;42.684;23.252;2023-02-20T15:04:26;94976.66;;;9.58;48.67
11339;BME280;5724;42.684;23.252;2023-02-20T15:06:54;94983.97;;;9.45;48.98
11339;BME280;5724;42.684;23.252;2023-02-20T15:09:34;94996.63;;;9.50;48.63
11339;BME280;5724;42.684;23.252;2023-02-20T15:12:00;95007.97;;;9.39;48.97
11339;BME280;5724;42.684;23.252;2023-02-20T15:14:31;95003.28;;;9.40;49.26
11339;BME280;5724;42.684;23.252;2023-02-20T15:17:20;94996.50;;;9.25;49.89
11339;BME280;5724;42.684;23.252;2023-02-20T15:19:47;95003.56;;;9.26;49.86
11339;BME280;5724;42.684;23.252;2023-02-20T15:22:32;94996.13;;;9.14;50.17
11339;BME280;5724;42.684;23.252;2023-02-20T15:33:40;94982.06;;;8.92;51.04
11339;BME280;5724;42.684;23.252;2023-02-20T15:36:12;94980.31;;;8.87;51.32
11339;BME280;5724;42.684;23.252;2023-02-20T15:38:39;94988.81;;;8.85;51.27
11339;BME280;5724;42.684;23.252;2023-02-20T15:41:05;94979.06;;;8.84;51.73
11339;BME280;5724;42.684;23.252;2023-02-20T15:43:31;94984.56;;;8.76;52.08
11339;BME280;5724;42.684;23.252;2023-02-20T15:45:57;94979.50;;;8.66;52.61